Time;durP1;ratioP1;P1;durP2;ratioP2;P2;SDS_P1;SDS_P2;PMS_P1;PMS_P2;Temp;Humidity;BMP_temperature;BMP_pressure;BME280_temperature;BME280_humidity;BME280_pressure;Samples;Min_cycle;Max_cycle;Signal;HPM_P1;HPM_P2
2022/02/21 00:00:42;;;;;;;;;7.00;3.50;;;;;11.43;75.10;100697.19;5027857;28;46027;-70
2022/02/21 00:03:08;;;;;;;;;2.75;2.00;;;;;11.39;74.59;100712.28;5017429;28;45567;-70
2022/02/21 00:05:36;;;;;;;;;7.00;3.75;;;;;11.34;73.96;100716.91;5015623;28;45292;-70
2022/02/21 00:08:02;;;;;;;;;5.25;3.75;;;;;11.29;73.72;100715.41;5013648;28;45601;-70
2022/02/21 00:10:27;;;;;;;;;7.50;2.00;;;;;11.18;73.21;100727.28;5014218;28;45434;-69
2022/02/21 00:28:49;;;;;;;;;7.00;4.50;;;;;10.34;68.53;100759.88;5128336;27;45336;-70
2022/02/21 00:31:15;;;;;;;;;9.50;4.50;;;;;10.31;68.10;100761.75;5122943;27;45777;-70
2022/02/21 00:33:41;;;;;;;;;4.75;2.00;;;;;10.25;68.07;100773.38;5112986;27;45413;-70
2022/02/21 00:36:07;;;;;;;;;8.00;2.25;;;;;10.20;67.96;100784.03;5113250;27;45429;-70
2022/02/21 00:38:33;;;;;;;;;4.25;3.00;;;;;10.20;67.43;100794.53;5109630;27;46231;-70
2022/02/21 00:40:58;;;;;;;;;3.50;2.50;;;;;10.23;67.75;100784.81;5111274;27;46014;-70
2022/02/21 00:43:24;;;;;;;;;5.75;2.00;;;;;10.24;67.17;100794.47;5110702;27;45670;-70
2022/02/21 00:45:50;;;;;;;;;2.00;1.50;;;;;10.22;67.24;100804.13;5113874;27;46922;-70
2022/02/21 00:48:16;;;;;;;;;2.50;2.50;;;;;10.19;67.01;100805.97;5109265;27;45626;-69
2022/02/21 00:50:41;;;;;;;;;5.00;2.25;;;;;10.18;66.69;100799.00;5114692;27;45912;-69
2022/02/21 00:53:07;;;;;;;;;3.75;1.75;;;;;10.19;67.49;100800.72;5109695;27;45549;-70
2022/02/21 00:55:35;;;;;;;;;5.25;2.00;;;;;10.24;67.68;100807.59;5111455;27;45642;-70
2022/02/21 00:58:02;;;;;;;;;5.75;2.00;;;;;10.28;67.71;100812.63;5110125;27;46339;-70
2022/02/21 01:00:27;;;;;;;;;7.75;2.75;;;;;10.34;67.63;100819.44;5110422;27;46073;-70
2022/02/21 01:02:53;;;;;;;;;4.00;3.00;;;;;10.37;67.53;100824.56;5109842;27;45447;-69
2022/02/21 01:05:18;;;;;;;;;3.00;1.50;;;;;10.39;67.30;100835.88;5111390;27;45387;-69
2022/02/21 01:07:44;;;;;;;;;4.00;1.75;;;;;10.40;67.16;100853.34;5109150;27;46156;-69
2022/02/21 01:10:09;;;;;;;;;3.50;2.00;;;;;10.38;66.89;100871.75;5112084;27;45468;-69
2022/02/21 01:12:35;;;;;;;;;2.75;1.00;;;;;10.35;67.20;100913.94;5109168;27;45555;-69
2022/02/21 01:15:04;;;;;;;;;2.00;1.00;;;;;10.16;72.77;100928.66;5108832;27;45403;-69
2022/02/21 01:17:30;;;;;;;;;2.00;2.00;;;;;9.86;74.98;100949.03;5109385;27;46376;-70
2022/02/21 01:19:55;;;;;;;;;0.75;0.75;;;;;9.54;90.29;100956.28;5110563;27;45462;-70
2022/02/21 01:22:21;;;;;;;;;2.25;0.50;;;;;9.30;79.58;100925.69;5110376;27;45414;-71
2022/02/21 01:24:46;;;;;;;;;1.00;1.00;;;;;9.09;80.46;100895.81;5113926;27;45353;-70
2022/02/21 01:27:14;;;;;;;;;1.00;1.00;;;;;8.90;80.70;100895.56;5109551;27;45983;-69
2022/02/21 01:29:40;;;;;;;;;2.75;1.00;;;;;8.77;82.16;100902.09;5100049;27;45401;-69
2022/02/21 01:32:07;;;;;;;;;0.25;0.00;;;;;8.63;81.06;100898.19;5095680;27;45362;-70
2022/02/21 01:34:32;;;;;;;;;1.00;0.00;;;;;8.49;81.36;100889.91;5096854;27;45537;-70
2022/02/21 01:36:58;;;;;;;;;1.00;0.00;;;;;8.37;81.23;100913.88;5095162;27;45477;-70
2022/02/21 01:39:23;;;;;;;;;0.25;0.25;;;;;8.30;77.40;100923.66;5095822;27;45474;-70
2022/02/21 01:41:49;;;;;;;;;3.00;0.00;;;;;8.27;76.17;100915.88;5096181;27;45643;-70
2022/02/21 01:44:15;;;;;;;;;4.00;1.25;;;;;8.24;75.63;100910.72;5094658;27;45381;-70
2022/02/21 01:46:41;;;;;;;;;1.50;1.00;;;;;8.28;75.71;100925.44;5107437;27;46000;-70
2022/02/21 01:49:08;;;;;;;;;0.50;0.50;;;;;8.38;75.66;100949.63;5100540;27;45444;-70
2022/02/21 01:51:35;;;;;;;;;0.00;0.00;;;;;8.47;75.16;100998.25;5105311;27;45382;-70
2022/02/21 01:54:04;;;;;;;;;2.00;2.00;;;;;8.53;77.27;101004.16;5101726;27;45471;-70
2022/02/21 01:56:31;;;;;;;;;0.50;0.25;;;;;8.48;77.48;100972.00;5100113;27;46223;-70
2022/02/21 01:58:56;;;;;;;;;2.00;0.00;;;;;8.30;80.99;100935.84;5095740;27;45416;-70
2022/02/21 02:01:21;;;;;;;;;1.25;0.25;;;;;8.16;82.58;100923.22;5097758;27;45402;-70
2022/02/21 02:03:47;;;;;;;;;2.25;0.00;;;;;8.04;81.02;100945.38;5099641;27;45403;-70
2022/02/21 02:06:13;;;;;;;;;0.50;0.00;;;;;7.94;77.60;100940.44;5098135;27;46291;-69
2022/02/21 02:08:39;;;;;;;;;2.50;0.00;;;;;7.85;76.02;100938.94;5094639;27;45336;-70
2022/02/21 02:11:04;;;;;;;;;2.00;0.00;;;;;7.74;75.54;100938.41;5096678;27;45424;-70
2022/02/21 02:13:30;;;;;;;;;1.00;1.00;;;;;7.65;76.10;100936.88;5105030;27;45484;-70
2022/02/21 02:15:55;;;;;;;;;2.00;0.00;;;;;7.59;75.61;100939.66;5094994;27;46312;-70
2022/02/21 02:18:22;;;;;;;;;4.75;0.25;;;;;7.51;75.63;100926.78;5096146;27;45508;-70
2022/02/21 02:20:48;;;;;;;;;1.00;1.00;;;;;7.44;75.76;100933.09;5098478;27;45501;-70
2022/02/21 02:23:13;;;;;;;;;3.25;0.50;;;;;7.39;76.08;100924.50;5107590;27;45455;-70
2022/02/21 02:25:39;;;;;;;;;2.25;1.00;;;;;7.36;75.72;100924.63;5119405;27;47410;-70
2022/02/21 02:28:05;;;;;;;;;1.75;1.00;;;;;7.33;76.04;100915.06;5102034;27;45365;-70
2022/02/21 02:30:30;;;;;;;;;4.50;0.25;;;;;7.33;76.38;100922.06;5095394;27;45471;-70
2022/02/21 02:32:56;;;;;;;;;1.50;1.00;;;;;7.32;76.33;100930.81;5095169;27;45457;-70
2022/02/21 02:35:22;;;;;;;;;2.25;1.25;;;;;7.32;76.45;100936.91;5095103;27;45878;-70
2022/02/21 02:37:48;;;;;;;;;5.00;1.00;;;;;7.32;76.51;100929.06;5090826;27;45898;-70
2022/02/21 02:40:15;;;;;;;;;2.00;0.00;;;;;7.32;76.87;100931.66;5096015;27;45313;-70
2022/02/21 02:42:40;;;;;;;;;2.50;2.00;;;;;7.33;76.65;100928.16;5098042;27;45754;-70
2022/02/21 02:45:06;;;;;;;;;2.00;0.75;;;;;7.35;76.65;100924.63;5103281;27;45753;-70
2022/02/21 02:47:31;;;;;;;;;4.50;2.00;;;;;7.34;76.77;100929.00;5107306;27;45609;-70
2022/02/21 02:49:57;;;;;;;;;6.00;2.00;;;;;7.36;76.42;100931.56;5095898;27;47684;-70
2022/02/21 02:52:22;;;;;;;;;5.25;2.00;;;;;7.37;76.73;100934.16;5096873;27;45348;-70
2022/02/21 02:54:47;;;;;;;;;9.75;1.00;;;;;7.38;76.60;100938.50;5093262;27;45414;-70
2022/02/21 02:57:13;;;;;;;;;4.00;1.50;;;;;7.39;76.16;100937.59;5095232;27;45726;-70
2022/02/21 02:59:38;;;;;;;;;7.25;2.50;;;;;7.39;76.22;100934.13;5094055;27;45541;-70
2022/02/21 03:02:04;;;;;;;;;4.00;2.00;;;;;7.40;76.01;100934.06;5102888;27;45333;-70
2022/02/21 03:04:29;;;;;;;;;9.50;3.00;;;;;7.40;76.02;100936.69;5103196;27;46216;-70
2022/02/21 03:06:58;;;;;;;;;3.00;3.00;;;;;7.41;75.85;100929.69;5102937;27;45483;-70
2022/02/21 03:09:24;;;;;;;;;5.50;2.25;;;;;7.42;75.52;100941.88;5095210;27;45458;-70
2022/02/21 03:11:49;;;;;;;;;6.25;3.50;;;;;7.44;75.38;100924.41;5094265;27;45468;-70
2022/02/21 03:14:14;;;;;;;;;2.25;1.00;;;;;7.47;75.12;100930.41;5093868;27;55267;-70
2022/02/21 03:16:40;;;;;;;;;3.00;1.00;;;;;7.48;75.08;100910.34;5098489;27;45465;-70
2022/02/21 03:19:05;;;;;;;;;9.25;2.75;;;;;7.48;74.98;100905.13;5096689;27;45451;-70
2022/02/21 03:21:31;;;;;;;;;7.50;4.50;;;;;7.49;74.85;100910.28;5102031;27;45528;-70
2022/02/21 03:23:56;;;;;;;;;7.00;2.00;;;;;7.49;74.07;100904.22;5100302;27;46126;-70
2022/02/21 03:26:21;;;;;;;;;7.00;2.00;;;;;7.50;73.94;100914.63;5093986;27;46113;-70
2022/02/21 03:28:47;;;;;;;;;6.00;2.00;;;;;7.52;74.07;100925.06;5093877;27;45417;-70
2022/02/21 03:31:12;;;;;;;;;8.25;2.75;;;;;7.51;73.49;100923.31;5099914;27;45469;-70
2022/02/21 03:33:37;;;;;;;;;9.00;3.00;;;;;7.51;73.58;100920.69;5102160;27;45451;-70
2022/02/21 03:36:03;;;;;;;;;7.75;3.50;;;;;7.50;73.86;100927.69;5098555;27;45524;-70
2022/02/21 03:38:28;;;;;;;;;3.00;3.00;;;;;7.49;73.14;100933.81;5094031;27;45417;-70
2022/02/21 03:40:54;;;;;;;;;3.00;1.00;;;;;7.50;73.00;100921.59;5093635;27;50984;-70
2022/02/21 03:43:19;;;;;;;;;8.00;2.25;;;;;7.50;73.09;100919.84;5105340;27;46062;-70
2022/02/21 03:45:45;;;;;;;;;3.00;2.75;;;;;7.50;73.45;100929.44;5094697;27;45761;-70
2022/02/21 03:48:10;;;;;;;;;5.50;2.75;;;;;7.50;72.96;100924.22;5101014;27;45430;-70
2022/02/21 03:50:35;;;;;;;;;7.25;2.00;;;;;7.49;72.86;100936.44;5103313;27;45731;-70
2022/02/21 03:53:01;;;;;;;;;5.25;1.75;;;;;7.49;73.28;100944.28;5093353;27;45393;-70
2022/02/21 03:55:26;;;;;;;;;6.50;1.50;;;;;7.50;73.05;100932.06;5096230;27;45503;-70
2022/02/21 03:57:51;;;;;;;;;5.25;2.00;;;;;7.59;73.41;100929.22;5095454;27;45579;-70
2022/02/21 04:00:18;;;;;;;;;3.00;3.00;;;;;7.67;72.86;100931.59;5093313;27;45257;-70
2022/02/21 04:02:44;;;;;;;;;6.00;2.50;;;;;7.71;72.83;100938.47;5093592;27;46159;-70
2022/02/21 04:05:10;;;;;;;;;3.25;1.50;;;;;7.73;72.69;100949.75;5093563;27;45347;-70
2022/02/21 04:07:37;;;;;;;;;1.75;1.00;;;;;7.77;72.45;100954.84;5094097;27;45480;-70
2022/02/21 04:10:03;;;;;;;;;3.00;1.00;;;;;7.87;72.23;100962.44;5100443;27;45562;-70
2022/02/21 04:12:28;;;;;;;;;2.50;0.00;;;;;7.95;72.17;100963.09;5091244;27;47602;-70
2022/02/21 04:14:54;;;;;;;;;10.50;1.25;;;;;7.99;71.98;100959.50;5091975;27;48949;-70
2022/02/21 04:17:19;;;;;;;;;5.33;3.00;;;;;8.08;71.85;100960.06;5101439;27;53636;-70
2022/02/21 04:19:47;;;;;;;;;5.25;1.00;;;;;8.13;71.63;100940.75;5092887;27;46033;-70
2022/02/21 04:22:15;;;;;;;;;3.50;2.00;;;;;8.19;71.60;100945.81;5094223;27;46290;-70
2022/02/21 04:24:40;;;;;;;;;6.00;1.75;;;;;8.20;71.20;100937.94;5091777;27;65756;-70
2022/02/21 04:27:07;;;;;;;;;5.00;0.25;;;;;8.19;71.22;100945.81;5094370;27;45546;-70
2022/02/21 04:29:32;;;;;;;;;8.25;2.00;;;;;8.20;71.39;100945.78;5093433;27;45395;-70
2022/02/21 04:31:58;;;;;;;;;4.50;2.25;;;;;8.23;71.82;100942.19;5093415;27;46106;-70
2022/02/21 04:34:23;;;;;;;;;2.00;1.00;;;;;8.27;72.01;100943.81;5094385;27;45358;-70
2022/02/21 04:36:48;;;;;;;;;6.25;2.50;;;;;8.32;71.71;100947.16;5093382;27;47664;-70
2022/02/21 04:39:14;;;;;;;;;2.00;1.00;;;;;8.35;72.10;100947.06;5102924;27;45534;-70
2022/02/21 04:41:39;;;;;;;;;5.25;1.50;;;;;8.36;71.58;100949.69;5097471;27;45396;-70
2022/02/21 04:44:04;;;;;;;;;4.75;3.00;;;;;8.37;71.37;100945.28;5093162;27;45418;-70
2022/02/21 04:46:30;;;;;;;;;5.00;2.50;;;;;8.35;71.07;100928.72;5092632;27;45397;-70
2022/02/21 04:48:55;;;;;;;;;4.50;2.00;;;;;8.29;71.13;100937.63;5094418;27;45316;-70
2022/02/21 04:51:21;;;;;;;;;3.00;1.00;;;;;8.25;70.97;100927.31;5093696;27;45500;-70
2022/02/21 04:53:46;;;;;;;;;3.00;2.00;;;;;8.18;70.98;100934.47;5091200;27;45391;-70
2022/02/21 04:56:12;;;;;;;;;11.50;2.75;;;;;8.13;70.90;100948.59;5104118;27;45419;-70
2022/02/21 04:58:37;;;;;;;;;2.75;1.00;;;;;8.09;70.81;100943.47;5094589;27;45409;-70
2022/02/21 05:01:02;;;;;;;;;5.00;1.25;;;;;8.08;71.07;100941.75;5093613;27;46112;-70
2022/02/21 05:03:28;;;;;;;;;2.50;1.00;;;;;8.09;70.86;100929.50;5093635;27;45318;-70
2022/02/21 05:05:53;;;;;;;;;0.50;0.00;;;;;8.05;70.94;100912.19;5096300;27;45843;-70
2022/02/21 05:08:18;;;;;;;;;1.00;0.00;;;;;7.99;71.06;100931.56;5106458;27;45481;-70
2022/02/21 05:10:44;;;;;;;;;4.00;1.50;;;;;7.92;70.92;100937.84;5106604;27;46105;-70
2022/02/21 05:13:09;;;;;;;;;1.00;1.00;;;;;7.85;71.04;100929.34;5106224;27;45327;-70
2022/02/21 05:15:34;;;;;;;;;3.00;1.00;;;;;7.80;71.14;100938.22;5101799;27;50825;-70
2022/02/21 05:18:00;;;;;;;;;2.50;1.25;;;;;7.75;70.91;100933.09;5095106;27;45512;-70
2022/02/21 05:20:25;;;;;;;;;1.00;1.00;;;;;7.71;71.09;100939.31;5099122;27;46143;-70
2022/02/21 05:22:51;;;;;;;;;5.75;2.75;;;;;7.70;70.83;100947.22;5096909;27;45570;-70
2022/02/21 05:25:17;;;;;;;;;2.00;0.00;;;;;7.64;71.45;100937.78;5093724;27;45465;-70
2022/02/21 05:27:42;;;;;;;;;4.00;1.75;;;;;7.61;71.24;100937.00;5095984;27;45362;-70
2022/02/21 05:30:09;;;;;;;;;3.67;2.00;;;;;7.56;71.55;100932.75;5097763;27;48698;-70
2022/02/21 05:32:35;;;;;;;;;5.50;0.50;;;;;7.53;71.30;100939.84;5094609;27;46014;-70
2022/02/21 05:35:01;;;;;;;;;2.00;1.00;;;;;7.49;71.62;100925.97;5097965;27;45543;-70
2022/02/21 05:37:26;;;;;;;;;1.25;0.50;;;;;7.49;71.85;100938.19;5096968;27;45567;-70
2022/02/21 05:39:51;;;;;;;;;1.00;0.00;;;;;7.49;71.58;100928.59;5095097;27;45445;-70
2022/02/21 05:42:17;;;;;;;;;1.25;1.00;;;;;7.47;71.96;100940.88;5095725;27;45350;-70
2022/02/21 05:44:42;;;;;;;;;2.00;1.00;;;;;7.47;72.06;100937.41;5096511;27;45321;-70
2022/02/21 05:47:08;;;;;;;;;3.00;1.00;;;;;7.47;71.82;100946.09;5096761;27;45403;-70
2022/02/21 05:49:33;;;;;;;;;1.25;0.00;;;;;7.49;71.72;100930.34;5105712;27;46888;-70
2022/02/21 05:51:59;;;;;;;;;2.00;1.00;;;;;7.47;72.30;100940.00;5095802;27;45379;-70
2022/02/21 05:54:25;;;;;;;;;1.50;0.25;;;;;7.46;71.79;100939.13;5097557;27;45430;-70
2022/02/21 05:56:50;;;;;;;;;2.00;0.00;;;;;7.42;72.03;100926.19;5103606;27;45383;-70
2022/02/21 05:59:16;;;;;;;;;3.00;1.00;;;;;7.37;71.88;100938.53;5096168;27;45420;-70
2022/02/21 06:01:41;;;;;;;;;1.25;1.00;;;;;7.33;72.17;100948.22;5095086;27;45569;-70
2022/02/21 06:04:08;;;;;;;;;0.50;0.00;;;;;7.26;71.63;100934.44;5101259;27;45813;-70
2022/02/21 06:06:34;;;;;;;;;0.75;0.75;;;;;7.22;72.03;100955.47;5096548;27;45587;-70
2022/02/21 06:08:59;;;;;;;;;1.00;1.00;;;;;7.19;72.33;100950.31;5093582;27;46185;-70
2022/02/21 06:11:24;;;;;;;;;0.00;0.00;;;;;7.14;72.37;100967.88;5108273;27;45461;-70
2022/02/21 06:13:50;;;;;;;;;1.25;0.00;;;;;7.10;72.28;100958.38;5095079;27;47171;-70
2022/02/21 06:16:16;;;;;;;;;0.00;0.00;;;;;7.10;72.47;100976.66;5097329;27;45394;-70
2022/02/21 06:18:41;;;;;;;;;0.75;0.00;;;;;7.11;72.67;100979.28;5093577;27;46116;-70
2022/02/21 06:21:06;;;;;;;;;0.50;0.50;;;;;7.14;72.90;100994.00;5101378;27;45448;-70
2022/02/21 06:23:32;;;;;;;;;3.00;1.00;;;;;7.17;72.76;101002.63;5102728;27;45333;-70
2022/02/21 06:25:57;;;;;;;;;2.00;0.00;;;;;7.17;72.83;100983.47;5103582;27;45378;-71
2022/02/21 06:28:24;;;;;;;;;1.25;1.00;;;;;7.19;72.67;100992.13;5097642;27;45355;-70
2022/02/21 06:30:51;;;;;;;;;0.00;0.00;;;;;7.25;72.20;100979.75;5097022;27;45918;-70
2022/02/21 06:33:17;;;;;;;;;0.00;0.00;;;;;7.36;72.58;100997.81;5092904;27;45622;-71
2022/02/21 06:35:43;;;;;;;;;0.50;0.00;;;;;7.47;72.49;100993.16;5114918;27;45331;-70
2022/02/21 06:38:08;;;;;;;;;2.50;0.25;;;;;7.55;72.21;100993.81;5094225;27;46938;-70
2022/02/21 06:40:34;;;;;;;;;0.25;0.00;;;;;7.63;71.99;100995.38;5095765;27;45333;-70
2022/02/21 06:43:01;;;;;;;;;0.50;0.25;;;;;7.69;72.08;100992.59;5097082;27;45508;-70
2022/02/21 06:45:27;;;;;;;;;1.00;0.00;;;;;7.75;71.98;100998.50;5099172;27;45643;-70
2022/02/21 06:47:53;;;;;;;;;0.75;0.75;;;;;7.82;71.96;100986.13;5092760;27;46400;-71
2022/02/21 06:50:19;;;;;;;;;0.00;0.00;;;;;7.85;71.31;100994.75;5094216;27;45468;-70
2022/02/21 06:52:44;;;;;;;;;2.00;0.50;;;;;7.84;71.08;101005.25;5095739;27;45286;-71
2022/02/21 06:55:13;;;;;;;;;0.00;0.00;;;;;7.78;71.43;100995.81;5097321;27;45342;-71
2022/02/21 06:57:44;;;;;;;;;1.00;0.00;;;;;7.74;71.07;100999.41;5098859;27;47066;-71
2022/02/21 07:00:10;;;;;;;;;4.00;0.75;;;;;7.68;71.29;101002.22;5104402;27;45277;-70
2022/02/21 07:02:36;;;;;;;;;1.75;1.75;;;;;7.64;71.32;101008.41;5104990;27;45223;-71
2022/02/21 07:05:02;;;;;;;;;1.00;0.00;;;;;7.60;71.16;101006.75;5095304;27;45468;-70
2022/02/21 07:07:28;;;;;;;;;3.00;0.00;;;;;7.58;71.71;101014.66;5095859;27;45457;-71
2022/02/21 07:09:53;;;;;;;;;0.00;0.00;;;;;7.59;70.96;101023.38;5096145;27;49597;-70
2022/02/21 07:12:18;;;;;;;;;1.00;1.00;;;;;7.60;71.26;101032.91;5094441;27;45781;-71
2022/02/21 07:14:44;;;;;;;;;3.50;1.25;;;;;7.67;71.41;101044.94;5092399;27;45525;-71
2022/02/21 07:17:09;;;;;;;;;1.25;0.00;;;;;7.75;71.49;101045.59;5093922;27;46004;-70
2022/02/21 07:19:35;;;;;;;;;3.25;1.75;;;;;7.78;71.56;101037.69;5093752;27;45343;-71
2022/02/21 07:22:00;;;;;;;;;1.50;1.50;;;;;7.79;71.25;101043.78;5098220;27;45511;-71
2022/02/21 07:24:27;;;;;;;;;1.50;0.75;;;;;7.76;70.83;101038.63;5087724;27;45369;-70
2022/02/21 07:26:52;;;;;;;;;0.75;0.25;;;;;7.74;71.26;101036.03;5092181;27;46081;-70
2022/02/21 07:29:18;;;;;;;;;2.00;1.00;;;;;7.78;71.54;101045.53;5099281;27;45461;-71
2022/02/21 07:31:43;;;;;;;;;5.00;1.00;;;;;7.88;71.47;101042.66;5093613;27;45700;-70
2022/02/21 07:34:09;;;;;;;;;2.75;1.00;;;;;8.06;71.18;101044.78;5094598;27;46083;-70
2022/02/21 07:36:34;;;;;;;;;1.75;0.75;;;;;8.41;70.65;101045.59;5096857;27;45730;-71
2022/02/21 07:39:01;;;;;;;;;0.25;0.00;;;;;8.80;70.63;101051.38;5093800;27;46794;-71
2022/02/21 07:41:27;;;;;;;;;2.75;1.00;;;;;9.29;70.39;101053.34;5093483;27;45814;-70
2022/02/21 07:43:53;;;;;;;;;2.00;2.00;;;;;9.78;69.42;101048.19;5092931;27;45528;-71
2022/02/21 07:46:18;;;;;;;;;3.00;1.00;;;;;9.82;68.35;101048.03;5101554;27;46384;-70
2022/02/21 07:48:43;;;;;;;;;6.00;1.00;;;;;9.94;67.44;101031.00;5099599;27;45444;-71
2022/02/21 07:51:09;;;;;;;;;4.25;2.50;;;;;9.88;67.17;101018.94;5094453;27;46507;-70
2022/02/21 07:53:34;;;;;;;;;3.00;1.25;;;;;9.81;66.98;101021.81;5095610;27;45698;-69
2022/02/21 07:56:00;;;;;;;;;2.25;1.00;;;;;10.45;67.41;101025.66;5104189;27;46277;-70
2022/02/21 07:58:25;;;;;;;;;3.50;1.00;;;;;11.06;66.13;101024.16;5094890;27;45499;-71
2022/02/21 08:00:51;;;;;;;;;4.00;2.00;;;;;11.43;65.55;101032.28;5092528;27;45529;-70
2022/02/21 08:03:16;;;;;;;;;2.25;2.00;;;;;11.74;64.16;101034.47;5093922;27;45475;-70
2022/02/21 08:05:42;;;;;;;;;1.50;1.00;;;;;12.47;63.85;101042.66;5092631;27;45950;-70
2022/02/21 08:08:08;;;;;;;;;8.50;1.50;;;;;12.80;62.77;101051.66;5096806;27;45303;-70
2022/02/21 08:10:34;;;;;;;;;5.00;1.00;;;;;12.59;61.75;101046.53;5098650;27;45496;-70
2022/02/21 08:13:00;;;;;;;;;3.25;1.00;;;;;12.23;62.18;101042.00;5096340;27;45538;-70
2022/02/21 08:15:26;;;;;;;;;3.25;1.75;;;;;11.79;62.23;101039.50;5093266;27;49422;-71
2022/02/21 08:17:51;;;;;;;;;3.25;1.00;;;;;11.41;62.64;101043.75;5092610;27;45498;-70
2022/02/21 08:20:20;;;;;;;;;2.00;1.00;;;;;11.17;63.15;101048.25;5098750;27;46767;-71
2022/02/21 08:22:45;;;;;;;;;2.00;0.00;;;;;10.98;63.43;101037.63;5093302;27;45510;-70
2022/02/21 08:25:11;;;;;;;;;5.75;2.00;;;;;10.77;63.55;101059.50;5094996;27;46253;-71
2022/02/21 08:27:38;;;;;;;;;3.50;1.75;;;;;10.66;63.74;101057.28;5099754;27;45841;-71
2022/02/21 08:30:06;;;;;;;;;2.00;2.00;;;;;10.85;64.13;101052.16;5098777;27;45568;-70
2022/02/21 08:32:31;;;;;;;;;7.50;1.75;;;;;10.94;63.40;101050.03;5097007;27;45425;-70
2022/02/21 08:34:57;;;;;;;;;3.75;1.00;;;;;10.89;63.49;101051.13;5092800;27;46888;-70
2022/02/21 08:37:22;;;;;;;;;3.00;2.67;;;;;10.79;63.65;101048.00;5094058;27;54476;-70
2022/02/21 08:39:47;;;;;;;;;1.00;1.00;;;;;10.69;63.45;101052.75;5094714;27;45521;-70
2022/02/21 08:42:13;;;;;;;;;3.75;2.00;;;;;10.61;63.70;101031.16;5100587;27;45715;-70
2022/02/21 08:44:38;;;;;;;;;3.75;1.75;;;;;10.54;63.70;101050.69;5094584;27;46148;-70
2022/02/21 08:47:04;;;;;;;;;3.75;2.25;;;;;10.44;63.80;101057.25;5098156;27;45564;-70
2022/02/21 08:49:29;;;;;;;;;5.00;2.75;;;;;10.40;63.95;101050.38;5097260;27;45337;-70
2022/02/21 08:51:54;;;;;;;;;47.00;36.00;;;;;10.43;64.00;101055.50;5097068;27;45717;-70
2022/02/21 08:54:21;;;;;;;;;4.50;1.00;;;;;10.47;64.14;101069.41;5096030;27;46038;-71
2022/02/21 08:56:47;;;;;;;;;4.00;1.00;;;;;10.51;64.38;101063.97;5091970;27;45830;-70
2022/02/21 08:59:13;;;;;;;;;2.50;2.50;;;;;10.59;64.19;101061.91;5096787;27;45497;-70
2022/02/21 09:01:42;;;;;;;;;6.25;2.25;;;;;10.86;64.05;101059.16;5096067;27;45425;-70
2022/02/21 09:04:08;;;;;;;;;1.00;1.00;;;;;11.45;64.00;101051.47;5101289;27;45596;-70
2022/02/21 09:06:33;;;;;;;;;2.50;1.75;;;;;13.75;63.99;101057.59;5096689;27;45320;-70
2022/02/21 09:08:59;;;;;;;;;3.75;1.00;;;;;14.44;59.98;101056.59;5085309;27;45682;-70
2022/02/21 09:11:24;;;;;;;;;1.00;1.00;;;;;14.95;59.78;101067.09;5089722;27;48280;-70
2022/02/21 09:13:50;;;;;;;;;7.75;4.00;;;;;16.66;58.56;101047.16;5094150;27;45584;-71
2022/02/21 09:16:15;;;;;;;;;4.75;2.00;;;;;18.90;55.36;101055.94;5093307;27;45497;-69
2022/02/21 09:18:40;;;;;;;;;3.00;1.00;;;;;20.84;51.91;101038.34;5084529;27;45308;-70
2022/02/21 09:21:06;;;;;;;;;0.75;0.75;;;;;20.95;49.65;101037.47;5082321;27;52151;-70
2022/02/21 09:23:31;;;;;;;;;4.75;1.75;;;;;19.93;51.05;101031.28;5082583;27;46114;-70
2022/02/21 09:25:56;;;;;;;;;2.50;1.00;;;;;18.80;49.85;101030.94;5093956;27;45544;-70
2022/02/21 09:28:22;;;;;;;;;2.50;1.50;;;;;18.21;50.34;101037.72;5096940;27;45919;-71
2022/02/21 09:30:48;;;;;;;;;3.50;1.75;;;;;17.82;50.10;101036.03;5093930;27;45500;-71
2022/02/21 09:33:13;;;;;;;;;3.00;1.75;;;;;17.02;49.78;101042.25;5094026;27;47136;-69
2022/02/21 09:35:38;;;;;;;;;4.25;1.00;;;;;16.08;50.04;101028.72;5092056;27;46752;-71
2022/02/21 09:38:04;;;;;;;;;4.25;2.00;;;;;15.44;50.75;101027.22;5093092;27;45693;-70
2022/02/21 09:40:29;;;;;;;;;2.00;2.00;;;;;15.24;51.68;101023.91;5091048;27;45769;-70
2022/02/21 09:42:59;;;;;;;;;4.00;1.25;;;;;16.37;52.59;101026.88;5095407;27;46253;-70
2022/02/21 09:45:25;;;;;;;;;1.75;1.25;;;;;18.45;51.05;101023.66;5093686;27;45758;-71
2022/02/21 09:47:51;;;;;;;;;4.00;2.75;;;;;18.56;49.17;101028.19;5087181;27;45523;-71
2022/02/21 09:50:17;;;;;;;;;4.75;1.00;;;;;18.64;48.07;101023.19;5092423;27;45419;-69
2022/02/21 09:52:42;;;;;;;;;2.00;1.00;;;;;18.50;48.99;101030.34;5089074;27;46262;-73
2022/02/21 09:55:08;;;;;;;;;1.25;1.00;;;;;19.57;49.36;101034.91;5091574;27;45504;-68
2022/02/21 09:57:34;;;;;;;;;4.50;3.75;;;;;21.40;47.18;101018.63;5091975;27;45831;-67
2022/02/21 09:59:59;;;;;;;;;4.25;2.75;;;;;22.97;46.04;101026.34;5091658;27;45648;-68
2022/02/21 10:02:29;;;;;;;;;6.00;3.75;;;;;21.84;44.06;101028.22;5092904;27;46934;-68
2022/02/21 10:05:13;;;;;;;;;4.75;1.50;;;;;20.17;43.81;101049.88;5098307;27;45980;-67
2022/02/21 10:07:39;;;;;;;;;5.00;4.00;;;;;18.60;44.21;101043.00;5093928;27;45683;-67
2022/02/21 10:10:06;;;;;;;;;17.50;9.75;;;;;17.59;46.11;101039.34;5092555;27;45527;-68
2022/02/21 10:12:31;;;;;;;;;4.00;2.00;;;;;16.76;47.03;101050.09;5089418;27;46911;-68
2022/02/21 10:15:10;;;;;;;;;3.75;2.75;;;;;16.01;47.34;101043.28;5098209;27;45977;-68
2022/02/21 10:17:35;;;;;;;;;4.00;1.50;;;;;15.53;47.86;101050.53;5105306;27;45614;-67
2022/02/21 10:20:05;;;;;;;;;2.00;2.00;;;;;15.07;48.80;101047.88;5095415;27;45457;-67
2022/02/21 10:22:32;;;;;;;;;5.00;2.75;;;;;15.34;50.42;101042.78;5094822;27;47604;-67
2022/02/21 10:24:59;;;;;;;;;1.00;1.00;;;;;16.20;49.28;101054.47;5096677;27;45615;-67
2022/02/21 10:27:30;;;;;;;;;3.75;1.25;;;;;16.86;48.78;101022.03;5094242;27;45437;-68
2022/02/21 10:30:04;;;;;;;;;1.50;0.75;;;;;17.00;48.54;101044.16;5099720;27;45522;-68
2022/02/21 10:32:32;;;;;;;;;57.75;39.00;;;;;16.90;47.01;101057.16;5098326;27;46094;-68
2022/02/21 10:35:17;;;;;;;;;2.75;1.75;;;;;17.40;48.01;101043.25;5103243;27;45776;-68
2022/02/21 10:37:43;;;;;;;;;4.50;2.50;;;;;18.14;48.23;101047.09;5096121;27;45596;-68
2022/02/21 10:40:20;;;;;;;;;4.50;1.75;;;;;18.85;46.80;101050.94;5095613;27;45457;-68
2022/02/21 10:43:01;;;;;;;;;3.75;2.50;;;;;18.85;45.17;101064.28;5102262;27;45534;-69
2022/02/21 10:45:29;;;;;;;;;4.50;1.75;;;;;18.66;45.27;101042.56;5110059;27;45596;-69
2022/02/21 10:48:12;;;;;;;;;4.75;1.00;;;;;18.66;45.58;101050.53;5101131;27;45512;-68
2022/02/21 10:50:52;;;;;;;;;1.75;1.75;;;;;18.76;44.68;101055.13;5089073;27;45383;-69
2022/02/21 10:53:23;;;;;;;;;3.00;2.25;;;;;19.14;45.12;101067.44;5097159;27;45552;-69
2022/02/21 10:55:50;;;;;;;;;5.75;2.50;;;;;19.38;44.34;101046.13;5100614;27;45807;-70
2022/02/21 10:58:18;;;;;;;;;6.00;1.25;;;;;19.37;44.28;101059.56;5098225;27;45418;-69
2022/02/21 11:00:44;;;;;;;;;2.00;1.50;;;;;19.41;44.11;101031.72;5098182;27;45497;-70
2022/02/21 11:03:10;;;;;;;;;2.25;2.00;;;;;19.70;44.54;101053.56;5098169;27;48313;-69
2022/02/21 11:05:36;;;;;;;;;6.50;4.00;;;;;19.89;43.25;101061.84;5092907;27;45437;-69
2022/02/21 11:08:02;;;;;;;;;5.00;2.00;;;;;20.10;43.21;101045.13;5094003;27;45464;-69
2022/02/21 11:10:28;;;;;;;;;3.75;2.00;;;;;20.27;42.86;101045.53;5095979;27;45456;-69
2022/02/21 11:12:55;;;;;;;;;1.75;1.00;;;;;20.23;42.10;101048.53;5094380;27;45339;-69
2022/02/21 11:15:23;;;;;;;;;2.50;1.25;;;;;20.13;42.15;101034.22;5093576;27;45823;-71
2022/02/21 11:17:49;;;;;;;;;4.00;1.50;;;;;20.06;42.18;101056.06;5093761;27;45532;-70
2022/02/21 11:20:14;;;;;;;;;5.25;3.50;;;;;19.39;42.09;101053.16;5094411;27;45964;-70
2022/02/21 11:22:40;;;;;;;;;6.00;3.00;;;;;18.65;41.98;101063.00;5094196;27;46205;-70
2022/02/21 11:25:15;;;;;;;;;4.25;1.75;;;;;17.90;42.54;101060.25;5093178;27;45475;-71
2022/02/21 11:28:08;;;;;;;;;7.75;2.00;;;;;17.35;43.38;101058.63;5089280;27;45569;-70
2022/02/21 11:30:33;;;;;;;;;3.00;1.00;;;;;17.02;43.68;101063.47;5100414;27;45566;-70
2022/02/21 11:33:03;;;;;;;;;1.50;1.00;;;;;16.83;44.08;101082.41;5095118;27;46066;-70
2022/02/21 11:35:29;;;;;;;;;6.00;1.75;;;;;16.59;44.76;101074.16;5090909;27;45880;-69
2022/02/21 11:38:02;;;;;;;;;1.75;1.00;;;;;16.30;45.15;101074.16;5091485;27;45415;-69
2022/02/21 11:40:27;;;;;;;;;5.25;3.75;;;;;15.98;45.51;101094.69;5091878;27;45520;-69